createdAt,value
2019-01-21T00:00:32.559Z,56.80
2019-01-21T00:02:59.399Z,55.63
2019-01-21T00:05:25.201Z,55.03
2019-01-21T00:07:51.039Z,55.97
2019-01-21T00:10:16.855Z,54.77
2019-01-21T00:12:43.817Z,60.60
2019-01-21T00:15:11.533Z,54.57
2019-01-21T00:17:38.418Z,55.80
2019-01-21T00:20:05.636Z,53.47
2019-01-21T00:22:31.575Z,54.20
2019-01-21T00:24:57.387Z,56.90
2019-01-21T00:27:23.216Z,55.67
2019-01-21T00:29:49.033Z,57.50
2019-01-21T00:32:14.894Z,61.37
2019-01-21T00:34:40.706Z,58.30
2019-01-21T00:37:08.481Z,53.90
2019-01-21T00:39:34.308Z,55.37
2019-01-21T00:42:00.138Z,50.87
2019-01-21T00:44:26.066Z,52.40
2019-01-21T00:46:57.237Z,71.27
2019-01-21T00:49:23.080Z,51.03
2019-01-21T00:51:49.005Z,55.20
2019-01-21T00:54:14.823Z,51.23
2019-01-21T00:56:40.679Z,55.33
2019-01-21T00:59:08.175Z,55.07
2019-01-21T01:01:34.227Z,55.07
2019-01-21T01:04:00.096Z,58.87
2019-01-21T01:06:25.900Z,57.20
2019-01-21T01:08:53.033Z,65.00
2019-01-21T01:11:18.921Z,60.63
2019-01-21T01:13:47.227Z,57.80
2019-01-21T01:16:13.034Z,58.40
2019-01-21T01:18:38.855Z,59.23
2019-01-21T01:21:05.899Z,60.57
2019-01-21T01:23:31.734Z,56.30
2019-01-21T01:25:57.575Z,57.37
2019-01-21T01:28:26.010Z,59.90
2019-01-21T01:30:51.814Z,58.57
2019-01-21T01:33:17.654Z,64.63
2019-01-21T01:35:43.469Z,55.30
2019-01-21T01:38:12.073Z,59.30
2019-01-21T01:40:39.279Z,62.80
2019-01-21T01:43:05.035Z,58.10
2019-01-21T01:45:31.392Z,64.40
2019-01-21T01:47:58.825Z,65.03
2019-01-21T01:50:24.725Z,54.90
2019-01-21T01:52:50.555Z,56.87
2019-01-21T01:55:16.389Z,65.47
2019-01-21T01:57:42.205Z,56.27
2019-01-21T02:00:13.351Z,61.27
2019-01-21T02:02:39.491Z,56.03
2019-01-21T02:05:05.423Z,54.43
2019-01-21T02:07:31.231Z,58.73
2019-01-21T02:09:57.053Z,59.77
2019-01-21T02:12:22.895Z,54.83
2019-01-21T02:14:50.711Z,62.10
2019-01-21T02:17:16.982Z,59.80
2019-01-21T02:19:42.986Z,61.40
2019-01-21T02:22:12.427Z,56.80
2019-01-21T02:24:38.327Z,63.00
2019-01-21T02:27:04.154Z,54.70
2019-01-21T02:29:46.141Z,56.10
2019-01-21T02:32:15.805Z,60.80
2019-01-21T02:34:54.583Z,58.50
2019-01-21T02:37:30.003Z,58.10
2019-01-21T02:40:05.927Z,57.50
2019-01-21T02:42:40.161Z,52.57
2019-01-21T02:45:24.314Z,56.07
2019-01-21T02:48:03.279Z,56.20
2019-01-21T02:50:44.406Z,55.57
2019-01-21T02:53:20.123Z,51.07
2019-01-21T02:56:04.849Z,49.97
2019-01-21T02:58:37.250Z,53.27
2019-01-21T03:01:05.751Z,57.57
2019-01-21T03:03:35.412Z,51.50
2019-01-21T03:06:05.117Z,56.27
2019-01-21T03:08:40.789Z,56.53
2019-01-21T03:11:45.593Z,57.37
2019-01-21T03:14:24.416Z,55.77
2019-01-21T03:17:02.838Z,52.80
2019-01-21T03:19:41.520Z,51.13
2019-01-21T03:22:14.173Z,52.87
2019-01-21T03:24:58.593Z,55.70
2019-01-21T03:27:51.227Z,57.07
2019-01-21T03:30:57.277Z,57.67
2019-01-21T03:33:39.208Z,54.20
2019-01-21T03:36:23.930Z,53.73
2019-01-21T03:39:11.929Z,50.43
2019-01-21T03:41:47.458Z,51.67
2019-01-21T03:44:19.581Z,51.70
2019-01-21T03:46:52.643Z,59.97
2019-01-21T03:49:28.056Z,52.77
2019-01-21T03:52:20.529Z,54.50
2019-01-21T03:54:47.848Z,59.53
2019-01-21T03:57:17.075Z,55.63
2019-01-21T04:00:01.512Z,52.77
2019-01-21T04:02:56.714Z,49.83
2019-01-21T04:05:35.620Z,54.03
2019-01-21T04:08:17.393Z,53.80
2019-01-21T04:10:57.303Z,55.70
2019-01-21T04:13:27.027Z,52.90
2019-01-21T04:16:16.863Z,55.93
2019-01-21T04:18:58.290Z,49.10
2019-01-21T04:21:33.696Z,58.57
2019-01-21T04:24:12.212Z,51.63
2019-01-21T04:27:03.046Z,52.40
2019-01-21T04:29:52.578Z,53.53
2019-01-21T04:32:34.374Z,54.87
2019-01-21T04:35:20.563Z,56.47
2019-01-21T04:37:56.818Z,50.80
2019-01-21T04:40:29.246Z,56.80
2019-01-21T04:43:08.171Z,55.90
2019-01-21T04:45:47.002Z,56.63
2019-01-21T04:48:23.661Z,52.50
2019-01-21T04:50:59.410Z,49.73
2019-01-21T04:53:57.818Z,54.87
2019-01-21T04:56:42.307Z,51.03
2019-01-21T04:59:28.176Z,51.07
2019-01-21T05:02:00.736Z,57.30
2019-01-21T05:04:36.210Z,52.03
2019-01-21T05:07:11.881Z,51.57
2019-01-21T05:09:53.329Z,53.53
2019-01-21T05:12:40.609Z,53.67
2019-01-21T05:15:28.322Z,54.70
2019-01-21T05:18:21.852Z,59.17
2019-01-21T05:21:06.856Z,56.60
2019-01-21T05:23:39.259Z,57.43
2019-01-21T05:26:19.511Z,53.17
2019-01-21T05:28:54.900Z,49.40
2019-01-21T05:31:36.077Z,55.83
2019-01-21T05:34:08.878Z,55.67
2019-01-21T05:36:40.085Z,52.97
2019-01-21T05:39:31.199Z,56.33
2019-01-21T05:42:16.154Z,55.23
2019-01-21T05:45:16.182Z,52.50
2019-01-21T05:47:54.855Z,52.93
2019-01-21T05:50:39.621Z,53.03
2019-01-21T05:53:31.863Z,50.83
2019-01-21T05:56:01.469Z,55.77
2019-01-21T05:58:36.484Z,57.53
2019-01-21T06:01:15.719Z,58.03
2019-01-21T06:03:45.381Z,53.70
2019-01-21T06:06:24.181Z,58.10
2019-01-21T06:09:15.308Z,56.63
2019-01-21T06:11:54.226Z,52.97
2019-01-21T06:14:36.225Z,52.13
2019-01-21T06:17:11.582Z,51.77
2019-01-21T06:19:52.610Z,59.43
2019-01-21T06:22:31.189Z,56.70
2019-01-21T06:25:06.893Z,65.57
2019-01-21T06:28:00.413Z,55.57
2019-01-21T06:30:47.782Z,57.70
2019-01-21T06:33:35.577Z,51.10
2019-01-21T06:36:10.986Z,60.97
2019-01-21T06:39:18.747Z,57.73
2019-01-21T06:42:06.755Z,48.37
2019-01-21T06:44:45.432Z,56.63
2019-01-21T06:47:30.110Z,58.27
2019-01-21T06:50:08.660Z,55.67
2019-01-21T06:52:38.255Z,50.30
2019-01-21T06:55:20.153Z,58.50
2019-01-21T06:58:06.354Z,63.23
2019-01-21T07:00:55.825Z,62.80
2019-01-21T07:03:59.222Z,59.90
2019-01-21T07:06:41.169Z,64.57
2019-01-21T07:09:10.783Z,58.30
2019-01-21T07:11:57.117Z,50.87
2019-01-21T07:14:37.328Z,53.07
2019-01-21T07:17:13.090Z,51.50
2019-01-21T07:19:57.772Z,53.93
2019-01-21T07:22:31.218Z,50.53
2019-01-21T07:25:27.849Z,54.10
2019-01-21T07:28:18.360Z,54.57
2019-01-21T07:30:48.092Z,57.10
2019-01-21T07:33:29.812Z,54.50
2019-01-21T07:36:14.531Z,60.17
2019-01-21T07:38:58.713Z,56.47
2019-01-21T07:41:31.080Z,61.53
2019-01-21T07:44:09.949Z,67.43
2019-01-21T07:47:14.103Z,66.40
2019-01-21T07:49:44.309Z,62.53
2019-01-21T07:52:49.118Z,65.27
2019-01-21T07:55:42.161Z,62.73
2019-01-21T07:58:36.060Z,61.00
2019-01-21T08:01:22.320Z,61.37
2019-01-21T08:04:00.841Z,60.33
2019-01-21T08:06:45.791Z,59.97
2019-01-21T08:09:15.440Z,59.07
2019-01-21T08:11:47.898Z,62.50
2019-01-21T08:14:29.014Z,56.57
2019-01-21T08:17:07.342Z,60.87
2019-01-21T08:19:52.003Z,62.03
2019-01-21T08:22:39.699Z,66.43
2019-01-21T08:25:24.752Z,66.10
2019-01-21T08:28:14.020Z,59.60
2019-01-21T08:30:46.672Z,56.57
2019-01-21T08:33:50.011Z,64.07
2019-01-21T08:36:19.677Z,62.07
2019-01-21T08:38:52.328Z,74.27
2019-01-21T08:41:24.703Z,63.67
2019-01-21T08:44:14.154Z,62.10
2019-01-21T08:47:01.785Z,64.97
2019-01-21T08:49:37.530Z,71.60
2019-01-21T08:52:22.429Z,73.67
2019-01-21T08:54:52.061Z,61.90
2019-01-21T08:57:21.701Z,66.43
2019-01-21T08:59:54.367Z,70.20
2019-01-21T09:02:26.587Z,63.10
2019-01-21T09:04:56.207Z,66.13
2019-01-21T09:07:33.257Z,69.33
2019-01-21T09:10:19.433Z,65.10
2019-01-21T09:12:58.402Z,74.60
2019-01-21T09:15:30.777Z,75.17
2019-01-21T09:18:00.427Z,63.00
2019-01-21T09:20:52.559Z,68.87
2019-01-21T09:23:22.345Z,66.13
2019-01-21T09:26:00.809Z,62.50
2019-01-21T09:28:39.455Z,67.97
2019-01-21T09:31:24.183Z,62.17
2019-01-21T09:34:10.964Z,60.07
2019-01-21T09:37:10.485Z,67.00
2019-01-21T09:40:07.679Z,62.17
2019-01-21T09:42:40.333Z,63.03
2019-01-21T09:45:12.723Z,57.37
2019-01-21T09:47:38.330Z,60.47
2019-01-21T09:50:04.146Z,63.50
2019-01-21T09:52:30.250Z,58.80
2019-01-21T09:54:56.362Z,60.70
2019-01-21T09:57:22.449Z,66.83
2019-01-21T09:59:49.950Z,60.30
2019-01-21T10:02:19.905Z,59.50
2019-01-21T10:04:46.133Z,64.47
2019-01-21T10:07:21.601Z,56.83
2019-01-21T10:10:07.817Z,57.80
2019-01-21T10:12:46.432Z,58.13
2019-01-21T10:15:22.068Z,62.67
2019-01-21T10:17:51.734Z,56.27
2019-01-21T10:20:24.401Z,57.30
2019-01-21T10:23:00.035Z,59.70
2019-01-21T10:25:55.687Z,58.63
2019-01-21T10:28:45.167Z,60.40
2019-01-21T10:31:20.815Z,57.33
2019-01-21T10:34:05.772Z,62.07
2019-01-21T10:36:51.869Z,58.57
2019-01-21T10:39:49.974Z,54.10
2019-01-21T10:42:39.702Z,58.53
2019-01-21T10:45:27.547Z,58.87
2019-01-21T10:47:57.186Z,57.17
2019-01-21T10:50:39.101Z,56.60
2019-01-21T10:53:39.326Z,56.37
2019-01-21T10:56:17.913Z,63.63
2019-01-21T10:59:14.543Z,60.67
2019-01-21T11:01:47.144Z,55.20
2019-01-21T11:04:38.199Z,60.53
2019-01-21T11:07:16.744Z,56.90
2019-01-21T11:09:55.431Z,51.93
2019-01-21T11:12:34.161Z,59.63
2019-01-21T11:15:13.040Z,52.73
2019-01-21T11:17:45.680Z,55.80
2019-01-21T11:20:24.114Z,50.57
2019-01-21T11:23:08.775Z,53.57
2019-01-21T11:25:57.497Z,53.20
2019-01-21T11:28:27.107Z,48.33
2019-01-21T11:31:23.684Z,55.30
2019-01-21T11:34:20.065Z,52.00
2019-01-21T11:36:55.830Z,50.43
2019-01-21T11:39:46.112Z,42.60
2019-01-21T11:42:22.298Z,47.63
2019-01-21T11:45:08.638Z,42.70
2019-01-21T11:47:43.912Z,46.17
2019-01-21T11:50:40.898Z,41.30
2019-01-21T11:53:10.551Z,43.90
2019-01-21T11:55:46.191Z,48.03
2019-01-21T11:58:34.089Z,40.27
2019-01-21T12:01:12.788Z,43.37
2019-01-21T12:03:57.379Z,39.97
2019-01-21T12:06:27.023Z,42.57
2019-01-21T12:09:18.005Z,40.53
2019-01-21T12:11:50.455Z,38.27
2019-01-21T12:14:20.065Z,37.40
2019-01-21T12:16:49.692Z,36.53
2019-01-21T12:19:37.420Z,35.80
2019-01-21T12:22:24.106Z,37.13
2019-01-21T12:24:52.718Z,32.20
2019-01-21T12:27:43.614Z,35.60
2019-01-21T12:30:28.238Z,36.40
2019-01-21T12:33:22.295Z,37.37
2019-01-21T12:35:57.417Z,32.73
2019-01-21T12:38:30.059Z,37.13
2019-01-21T12:41:21.551Z,34.57
2019-01-21T12:43:59.829Z,32.93
2019-01-21T12:46:47.509Z,32.27
2019-01-21T12:49:26.185Z,34.57
2019-01-21T12:52:12.086Z,34.20
2019-01-21T12:54:44.249Z,34.20
2019-01-21T12:57:16.835Z,33.13
2019-01-21T12:59:46.536Z,31.50
2019-01-21T13:02:22.308Z,32.63
2019-01-21T13:04:58.033Z,41.83
2019-01-21T13:07:30.171Z,32.53
2019-01-21T13:10:14.475Z,41.33
2019-01-21T13:13:05.242Z,37.00
2019-01-21T13:15:43.689Z,33.37
2019-01-21T13:18:28.131Z,33.37
2019-01-21T13:21:34.658Z,39.30
2019-01-21T13:24:00.887Z,34.73
2019-01-21T13:26:36.511Z,37.27
2019-01-21T13:29:09.155Z,36.77
2019-01-21T13:31:51.224Z,39.87
2019-01-21T13:34:38.799Z,37.60
2019-01-21T13:37:24.746Z,43.97
2019-01-21T13:40:28.217Z,42.50
2019-01-21T13:43:18.272Z,39.30
2019-01-21T13:45:59.996Z,40.40
2019-01-21T13:48:32.693Z,39.03
2019-01-21T13:51:02.320Z,40.33
2019-01-21T13:53:51.865Z,42.23
2019-01-21T13:56:21.493Z,40.47
2019-01-21T13:59:12.008Z,45.33
2019-01-21T14:01:41.644Z,44.43
2019-01-21T14:04:35.544Z,46.83
2019-01-21T14:07:10.558Z,45.97
2019-01-21T14:09:48.854Z,50.37
2019-01-21T14:12:25.435Z,50.33
2019-01-21T14:15:21.184Z,50.67
2019-01-21T14:17:59.951Z,51.03
2019-01-21T14:20:29.579Z,51.87
2019-01-21T14:23:08.343Z,54.23
2019-01-21T14:25:37.959Z,55.37
2019-01-21T14:28:15.287Z,52.93
2019-01-21T14:30:50.926Z,55.63
2019-01-21T14:33:32.702Z,59.73
2019-01-21T14:36:08.063Z,54.60
2019-01-21T14:38:46.726Z,56.93
2019-01-21T14:41:35.662Z,55.57
2019-01-21T14:44:26.609Z,59.00
2019-01-21T14:46:58.714Z,53.07
2019-01-21T14:49:43.457Z,58.07
2019-01-21T14:52:22.290Z,60.97
2019-01-21T14:54:54.627Z,61.07
2019-01-21T14:57:48.149Z,53.37
2019-01-21T15:00:31.370Z,61.20
2019-01-21T15:03:03.986Z,61.07
2019-01-21T15:05:48.985Z,54.90
2019-01-21T15:08:18.661Z,58.47
2019-01-21T15:10:57.321Z,60.40
2019-01-21T15:13:45.334Z,57.97
2019-01-21T15:16:23.986Z,63.90
2019-01-21T15:18:53.602Z,60.87
2019-01-21T15:21:42.821Z,60.20
2019-01-21T15:24:33.617Z,62.37
2019-01-21T15:27:09.038Z,65.57
2019-01-21T15:29:50.675Z,62.10
2019-01-21T15:32:32.707Z,62.70
2019-01-21T15:35:21.695Z,63.17
2019-01-21T15:38:09.660Z,63.93
2019-01-21T15:40:59.172Z,63.47
2019-01-21T15:43:44.188Z,62.33
2019-01-21T15:46:16.618Z,66.10
2019-01-21T15:48:48.982Z,62.53
2019-01-21T15:51:41.259Z,64.03
2019-01-21T15:54:17.016Z,63.30
2019-01-21T15:56:55.431Z,68.00
2019-01-21T15:59:44.911Z,71.70
2019-01-21T16:02:17.759Z,62.30
2019-01-21T16:04:53.569Z,67.00
2019-01-21T16:07:28.805Z,71.47
2019-01-21T16:10:10.572Z,70.63
2019-01-21T16:12:49.367Z,67.93
2019-01-21T16:15:42.230Z,69.90
2019-01-21T16:18:20.957Z,71.00
2019-01-21T16:21:13.659Z,65.90
2019-01-21T16:24:00.973Z,77.70
2019-01-21T16:26:33.255Z,70.73
2019-01-21T16:29:07.928Z,73.23
2019-01-21T16:31:33.827Z,66.37
2019-01-21T16:34:15.276Z,69.07
2019-01-21T16:36:45.735Z,68.03
2019-01-21T16:39:15.368Z,70.73
2019-01-21T16:41:45.022Z,67.57
2019-01-21T16:44:13.692Z,68.27
2019-01-21T16:46:40.897Z,73.83
2019-01-21T16:49:07.968Z,69.83
2019-01-21T16:51:33.954Z,75.43
2019-01-21T16:53:59.859Z,72.80
2019-01-21T16:56:25.713Z,70.80
2019-01-21T16:58:51.515Z,75.53
2019-01-21T17:01:17.347Z,66.07
2019-01-21T17:03:43.478Z,69.47
2019-01-21T17:06:10.050Z,72.47
2019-01-21T17:08:35.875Z,68.87
2019-01-21T17:11:01.700Z,67.33
2019-01-21T17:13:27.571Z,66.70
2019-01-21T17:15:56.056Z,68.07
2019-01-21T17:18:21.849Z,72.63
2019-01-21T17:20:47.664Z,70.17
2019-01-21T17:23:13.485Z,67.90
2019-01-21T17:25:39.307Z,68.27
2019-01-21T17:28:08.793Z,72.57
2019-01-21T17:30:36.134Z,71.57
2019-01-21T17:33:01.983Z,63.40
2019-01-21T17:35:27.802Z,63.70
2019-01-21T17:37:53.611Z,55.77
2019-01-21T17:40:19.454Z,62.93
2019-01-21T17:42:45.296Z,56.87
2019-01-21T17:45:13.714Z,65.13
2019-01-21T17:47:39.643Z,66.53
2019-01-21T17:50:08.967Z,68.43
2019-01-21T17:52:34.788Z,63.13
2019-01-21T17:55:00.620Z,70.77
2019-01-21T17:57:26.462Z,62.23
2019-01-21T17:59:53.727Z,64.53
2019-01-21T18:02:19.730Z,74.37
2019-01-21T18:04:45.580Z,73.00
2019-01-21T18:07:11.443Z,70.80
2019-01-21T18:09:37.251Z,71.57
2019-01-21T18:12:03.091Z,76.20
2019-01-21T18:14:31.789Z,71.37
2019-01-21T18:16:57.601Z,72.20
2019-01-21T18:19:23.460Z,73.60
2019-01-21T18:21:52.174Z,70.83
2019-01-21T18:24:17.978Z,68.13
2019-01-21T18:26:46.208Z,67.47
2019-01-21T18:29:12.019Z,69.93
2019-01-21T18:31:37.921Z,75.60
2019-01-21T18:34:03.759Z,72.27
2019-01-21T18:36:29.565Z,69.17
2019-01-21T18:39:03.083Z,72.30
2019-01-21T18:41:28.930Z,78.13
2019-01-21T18:43:54.814Z,71.93
2019-01-21T18:46:20.669Z,76.47
2019-01-21T18:48:49.245Z,75.70
2019-01-21T18:51:15.051Z,74.30
2019-01-21T18:53:40.872Z,70.03
2019-01-21T18:56:06.702Z,69.97
2019-01-21T18:58:32.495Z,65.00
2019-01-21T19:00:58.341Z,71.13
2019-01-21T19:03:26.252Z,62.80
2019-01-21T19:05:52.067Z,57.87
2019-01-21T19:08:17.919Z,60.37
2019-01-21T19:10:43.737Z,64.17
2019-01-21T19:13:11.955Z,56.77
2019-01-21T19:15:37.776Z,65.00
2019-01-21T19:18:03.580Z,65.57
2019-01-21T19:20:29.410Z,62.33
2019-01-21T19:22:55.255Z,70.17
2019-01-21T19:25:22.114Z,69.13
2019-01-21T19:27:47.936Z,72.73
2019-01-21T19:30:16.680Z,75.07
2019-01-21T19:32:45.877Z,72.47
2019-01-21T19:35:15.899Z,70.27
2019-01-21T19:37:43.609Z,67.60
2019-01-21T19:40:14.826Z,76.73
2019-01-21T19:42:41.115Z,66.47
2019-01-21T19:45:10.410Z,63.50
2019-01-21T19:47:36.218Z,71.17
2019-01-21T19:50:07.240Z,64.27
2019-01-21T19:52:33.181Z,66.07
2019-01-21T19:55:04.696Z,62.73
2019-01-21T19:57:30.764Z,62.93
2019-01-21T19:59:56.594Z,66.70
2019-01-21T20:02:22.617Z,69.23
2019-01-21T20:04:48.430Z,65.90
2019-01-21T20:07:14.235Z,68.17
2019-01-21T20:09:40.622Z,60.70
2019-01-21T20:12:06.386Z,66.40
2019-01-21T20:14:40.924Z,61.37
2019-01-21T20:17:08.627Z,65.10
2019-01-21T20:19:34.430Z,62.53
2019-01-21T20:22:07.147Z,61.07
2019-01-21T20:24:30.666Z,67.77
2019-01-21T20:26:56.661Z,67.07
2019-01-21T20:29:22.484Z,75.17
2019-01-21T20:31:48.350Z,71.63
2019-01-21T20:34:16.583Z,72.70
2019-01-21T20:36:44.415Z,64.20
2019-01-21T20:39:12.181Z,67.37
2019-01-21T20:41:38.228Z,66.13
2019-01-21T20:44:04.248Z,72.33
2019-01-21T20:46:30.099Z,69.30
2019-01-21T20:48:55.909Z,68.53
2019-01-21T20:51:21.729Z,64.47
2019-01-21T20:53:47.661Z,71.47
2019-01-21T20:56:13.476Z,79.57
2019-01-21T20:58:39.300Z,71.67
2019-01-21T21:01:05.155Z,77.70
2019-01-21T21:03:33.571Z,79.40
2019-01-21T21:06:02.352Z,77.30
2019-01-21T21:08:28.183Z,68.00
2019-01-21T21:10:54.021Z,72.33
2019-01-21T21:13:19.919Z,85.07
2019-01-21T21:15:45.843Z,75.13
2019-01-21T21:18:12.703Z,75.40
2019-01-21T21:20:38.628Z,93.20
2019-01-21T21:23:06.414Z,73.03
2019-01-21T21:25:32.225Z,73.63
2019-01-21T21:27:58.034Z,75.10
2019-01-21T21:30:26.455Z,81.43
2019-01-21T21:32:52.279Z,74.67
2019-01-21T21:35:18.614Z,85.57
2019-01-21T21:37:44.470Z,80.97
2019-01-21T21:40:18.507Z,84.67
2019-01-21T21:42:44.504Z,72.67
2019-01-21T21:45:12.115Z,80.43
2019-01-21T21:47:37.974Z,72.93
2019-01-21T21:50:08.028Z,95.07
2019-01-21T21:52:34.039Z,79.83
2019-01-21T21:54:59.847Z,75.53
2019-01-21T21:57:25.667Z,75.47
2019-01-21T21:59:51.509Z,77.73
2019-01-21T22:02:17.398Z,80.83
2019-01-21T22:04:43.220Z,86.23
2019-01-21T22:07:09.365Z,75.67
2019-01-21T22:09:35.190Z,73.80
2019-01-21T22:12:04.835Z,78.17
2019-01-21T22:14:30.649Z,69.50
2019-01-21T22:16:56.528Z,79.70
2019-01-21T22:19:22.326Z,67.03
2019-01-21T22:21:48.535Z,75.83
2019-01-21T22:24:14.391Z,73.93
2019-01-21T22:26:40.274Z,69.90
2019-01-21T22:29:06.102Z,73.13
2019-01-21T22:31:34.918Z,75.10
2019-01-21T22:34:00.823Z,65.97
2019-01-21T22:36:29.124Z,78.00
2019-01-21T22:38:54.967Z,71.47
2019-01-21T22:41:22.310Z,77.43
2019-01-21T22:43:49.063Z,74.13
2019-01-21T22:46:17.879Z,73.80
2019-01-21T22:48:43.708Z,70.83
2019-01-21T22:51:09.514Z,79.90
2019-01-21T22:53:35.915Z,66.67
2019-01-21T22:56:03.882Z,68.77
2019-01-21T22:58:29.675Z,67.83
2019-01-21T23:01:00.529Z,74.60
2019-01-21T23:03:26.401Z,71.00
2019-01-21T23:05:52.199Z,73.13
2019-01-21T23:08:18.303Z,69.43
2019-01-21T23:10:44.119Z,77.00
2019-01-21T23:13:09.954Z,71.57
2019-01-21T23:15:37.655Z,74.47
2019-01-21T23:18:04.449Z,74.43
2019-01-21T23:20:30.787Z,75.50
2019-01-21T23:22:56.627Z,69.53
2019-01-21T23:25:22.825Z,78.00
2019-01-21T23:27:48.634Z,74.27
2019-01-21T23:30:19.372Z,72.90
2019-01-21T23:32:45.178Z,73.00
2019-01-21T23:35:14.197Z,75.00
2019-01-21T23:37:41.262Z,79.67
2019-01-21T23:40:09.165Z,73.70
2019-01-21T23:42:37.105Z,78.90
2019-01-21T23:45:06.142Z,81.73
2019-01-21T23:47:31.956Z,85.47
2019-01-21T23:49:57.761Z,83.40
2019-01-21T23:52:23.824Z,78.93
2019-01-21T23:54:49.658Z,92.07
2019-01-21T23:57:15.474Z,83.07
2019-01-21T23:59:41.309Z,84.70
